Latest Weather Observations for Gatton

IDQ60901

Issued at 5:35 pm EST Friday 31 October 2014 (issued every 10 minutes, with the page automatically refreshed every 10 minutes)

About weather observations | Map of Brisbane area stations | Latest observations for Brisbane area | Other Formats
Station Details ID: 040082 Name: UNIVERSITY OF QUEENSLAND GATTON Lat: -27.54 Lon: 152.34 Height: 89.0 m
Data from the previous 72 hours. | See also: Recent months at Gatton
Date/Time
EST
Tmp

°C
App
Tmp
°C
Dew
Point
°C
Rel
Hum
%
Delta-T

°C
Wind Press
QNH
hPa
Press
MSL
hPa
Rain
since
9 am
mm
Dir
 
Spd
km/h
Gust
km/h
Spd
kts
Gust
kts
31/05:30pm 29.8 28.3 17.6 48 7.8 NE 22 35 12 19 - - 0.0
31/05:00pm 30.8 28.3 17.1 43 8.7 NE 26 35 14 19 - - 0.0
31/04:30pm 32.3 29.6 16.6 39 9.9 NE 26 39 14 21 - - 0.0
31/04:00pm 34.2 31.0 13.1 28 12.8 NNE 22 32 12 17 - - 0.0
31/03:30pm 34.3 31.7 13.7 29 12.6 ENE 20 30 11 16 - - 0.0
31/03:00pm 34.6 32.1 13.4 28 12.9 NNE 19 24 10 13 - - 0.0
31/02:30pm 34.0 31.7 11.8 26 13.2 ENE 15 26 8 14 - - 0.0
31/02:00pm 34.9 33.9 15.7 31 12.1 NNE 15 28 8 15 - - 0.0
31/01:30pm 34.5 33.0 16.8 34 11.3 ENE 20 30 11 16 - - 0.0
31/01:00pm 33.7 32.1 16.5 35 10.9 E 20 30 11 16 - - 0.0
31/12:30pm 32.8 31.3 16.2 37 10.5 E 19 28 10 15 - - 0.0
31/12:00pm 31.3 30.5 17.2 42 9.0 E 17 24 9 13 - - 0.0
31/11:30am 30.3 30.0 17.4 46 8.2 E 15 24 8 13 - - 0.0
31/11:00am 29.5 29.7 17.7 49 7.5 ENE 13 19 7 10 - - 0.0
31/10:30am 28.5 28.8 17.1 50 7.2 E 11 20 6 11 - - 0.0
31/10:00am 27.4 27.1 17.3 54 6.4 E 15 20 8 11 - - 0.0
31/09:30am 27.2 27.4 17.7 56 6.0 ENE 13 20 7 11 - - 0.0
31/09:00am 27.0 27.9 18.3 59 5.6 NE 11 24 6 13 - - 0.0
31/08:30am 25.4 26.0 17.6 62 4.9 E 11 15 6 8 - - 0.0
31/08:00am 24.1 25.7 18.3 70 3.7 E 7 13 4 7 - - 0.0
31/07:30am 23.0 25.1 18.1 74 3.1 E 4 9 2 5 - - 0.0
31/07:00am 22.4 25.0 18.4 78 2.5 E 2 7 1 4 - - 0.0
31/06:30am 21.9 23.4 18.1 79 2.4 SE 7 9 4 5 - - 0.0
31/06:00am 21.7 23.8 18.1 80 2.2 ESE 4 6 2 3 - - 0.0
31/05:30am 21.6 24.3 17.8 79 2.4 CALM 0 0 0 0 - - 0.0
31/05:00am 21.4 24.1 17.8 80 2.2 CALM 0 0 0 0 - - 0.0
31/04:30am 21.4 24.2 18.0 81 2.1 CALM 0 0 0 0 - - 0.0
31/04:00am 21.4 23.1 18.0 81 2.1 WNW 6 7 3 4 - - 0.0
31/03:30am 21.5 23.2 18.1 81 2.1 ESE 6 7 3 4 - - 0.0
31/03:00am 20.9 22.0 17.9 83 1.9 SE 9 13 5 7 - - 0.0
31/02:30am 20.7 22.1 17.9 84 1.7 ESE 7 9 4 5 - - 0.0
31/02:00am 20.8 22.2 17.8 83 1.9 SE 7 9 4 5 - - 0.0
31/01:30am 21.1 22.6 18.1 83 1.9 SSE 7 9 4 5 - - 0.0
31/01:00am 21.1 22.9 18.3 84 1.8 SSE 6 7 3 4 - - 0.0
31/12:30am 20.4 22.0 17.8 85 1.6 SSE 6 7 3 4 - - 0.0
31/12:00am 20.3 21.8 17.7 85 1.6 SE 6 9 3 5 - - 0.0
 
Date/Time
EST
Tmp

°C
App
Tmp
°C
Dew
Point
°C
Rel
Hum
%
Delta-T

°C
Wind Press
QNH
hPa
Press
MSL
hPa
Rain
since
9 am
mm
Dir
 
Spd
km/h
Gust
km/h
Spd
kts
Gust
kts
30/11:30pm 20.3 21.7 17.7 85 1.6 SE 7 11 4 6 - - 0.0
30/11:00pm 20.6 21.6 17.8 84 1.7 SSE 9 11 5 6 - - 0.0
30/10:30pm 20.8 22.4 17.8 83 1.9 SSE 6 9 3 5 - - 0.0
30/10:00pm 20.6 21.7 17.2 81 2.1 SSE 7 9 4 5 - - 0.0
30/09:30pm 21.4 22.9 17.6 79 2.4 ESE 6 9 3 5 - - 0.0
30/09:00pm 21.7 22.7 17.7 78 2.5 SE 9 13 5 7 - - 0.0
30/08:30pm 22.5 23.0 17.4 73 3.2 ESE 11 15 6 8 - - 0.0
30/08:00pm 23.0 23.5 17.5 71 3.4 ESE 11 15 6 8 - - 0.0
30/07:30pm 23.8 23.7 17.8 69 3.8 ESE 15 19 8 10 - - 0.0
30/07:00pm 24.7 23.6 17.7 65 4.4 E 20 28 11 15 - - 0.0
30/06:30pm 25.7 24.5 17.4 60 5.2 E 20 28 11 15 - - 0.0
30/06:00pm 26.9 25.3 17.4 56 6.0 E 22 28 12 15 - - 0.0
30/05:30pm 28.7 26.5 16.9 48 7.4 ENE 24 32 13 17 - - 0.0
30/05:00pm 30.3 27.8 17.0 44 8.4 ENE 26 33 14 18 - - 0.0
30/04:30pm 31.5 29.1 16.3 40 9.6 ENE 24 32 13 17 - - 0.0
30/04:00pm 32.9 31.6 11.4 27 12.6 ENE 9 13 5 7 - - 0.0
30/03:30pm 33.1 32.5 11.6 27 12.7 N 6 13 3 7 - - 0.0
30/03:00pm 32.9 30.9 11.4 27 12.6 NE 13 20 7 11 - - 0.0
30/02:30pm 33.0 31.6 12.1 28 12.4 ENE 11 20 6 11 - - 0.0
30/02:00pm 32.3 30.6 12.5 30 11.8 ENE 13 26 7 14 - - 0.0
30/01:30pm 31.8 30.3 13.1 32 11.2 E 13 22 7 12 - - 0.0
30/01:00pm 31.6 30.9 14.3 35 10.6 E 11 22 6 12 - - 0.0
30/12:30pm 30.9 29.7 14.1 36 10.2 E 13 20 7 11 - - 0.0
30/12:00pm 29.5 28.7 14.1 39 9.3 ENE 11 17 6 9 - - 0.0
30/11:30am 28.9 28.3 14.7 42 8.6 NE 11 19 6 10 - - 0.0
30/11:00am 28.4 27.2 13.9 41 8.7 ENE 13 20 7 11 - - 0.0
30/10:30am 27.4 27.2 14.8 46 7.6 ENE 9 20 5 11 - - 0.0
30/10:00am 26.4 25.9 14.8 49 7.0 N 11 17 6 9 - - 0.0
30/09:30am 26.7 26.8 15.4 50 6.9 ENE 9 17 5 9 - - 0.0
30/09:00am 24.8 23.8 14.6 53 6.1 ENE 13 20 7 11 - - 0.0
30/08:30am 24.1 23.5 14.5 55 5.7 NNE 11 17 6 9 - - 0.0
30/08:00am 23.3 23.1 14.6 58 5.2 ENE 9 15 5 8 - - 0.0
30/07:30am 22.2 22.8 14.3 61 4.6 N 4 9 2 5 - - 0.0
30/07:00am 20.6 21.3 14.5 68 3.6 SW 4 7 2 4 - - 0.0
30/06:30am 18.4 20.1 15.3 82 1.8 CALM 0 6 0 3 - - 0.0
30/06:00am 16.3 17.9 14.8 91 0.9 CALM 0 0 0 0 - - 0.0
30/05:30am 13.8 14.6 12.5 92 0.7 CALM 0 0 0 0 - - 0.0
30/05:00am 13.5 14.2 12.1 91 0.8 CALM 0 0 0 0 - - 0.0
30/04:30am 13.3 13.8 11.5 89 1.0 CALM 0 0 0 0 - - 0.0
30/04:00am 13.9 14.7 12.5 91 0.8 CALM 0 0 0 0 - - 0.0
30/03:30am 14.1 14.9 12.5 90 0.9 CALM 0 0 0 0 - - 0.0
30/03:00am 14.2 15.0 12.4 89 1.0 CALM 0 0 0 0 - - 0.0
30/02:30am 14.7 15.5 12.6 87 1.2 CALM 0 0 0 0 - - 0.0
30/02:00am 15.9 17.3 14.4 91 0.9 CALM 0 0 0 0 - - 0.0
30/01:30am 16.2 17.2 14.4 89 1.0 SE 2 6 1 3 - - 0.0
30/01:00am 16.6 17.3 14.6 88 1.2 SSE 4 7 2 4 - - 0.0
30/12:30am 16.9 17.2 14.5 86 1.4 SE 6 7 3 4 - - 0.0
30/12:00am 17.5 18.0 15.0 85 1.5 ESE 6 7 3 4 - - 0.0
 
Date/Time
EST
Tmp

°C
App
Tmp
°C
Dew
Point
°C
Rel
Hum
%
Delta-T

°C
Wind Press
QNH
hPa
Press
MSL
hPa
Rain
since
9 am
mm
Dir
 
Spd
km/h
Gust
km/h
Spd
kts
Gust
kts
29/11:30pm 17.8 18.0 14.3 80 2.0 ESE 6 7 3 4 - - 0.0
29/11:00pm 18.2 18.2 14.3 78 2.3 ESE 7 9 4 5 - - 0.0
29/10:30pm 19.7 19.8 15.4 76 2.5 E 9 11 5 6 - - 0.0
29/10:00pm 20.3 19.6 15.3 73 3.0 E 13 17 7 9 - - 0.0
29/09:30pm 20.8 19.7 15.4 71 3.2 E 15 20 8 11 - - 0.0
29/09:00pm 21.1 19.4 14.7 67 3.8 E 17 20 9 11 - - 0.0
29/08:30pm 21.5 20.1 14.6 65 4.1 E 15 20 8 11 - - 0.0
29/08:00pm 22.2 20.6 15.1 64 4.2 E 17 24 9 13 - - 0.0
29/07:30pm 23.0 20.5 15.1 61 4.7 E 22 30 12 16 - - 0.0
29/07:00pm 23.5 21.1 14.5 57 5.3 E 20 32 11 17 - - 0.0
29/06:30pm 24.5 20.9 13.1 49 6.6 E 24 30 13 16 - - 0.0
29/06:00pm 25.8 22.0 12.3 43 7.8 E 24 33 13 18 - - 0.0
29/05:30pm 27.3 22.4 11.3 37 9.2 E 28 35 15 19 - - 0.0
29/05:00pm 28.8 22.8 10.9 33 10.2 E 33 39 18 21 - - 0.0
29/04:30pm 30.1 24.5 12.1 33 10.6 E 33 43 18 23 - - 0.0
29/04:00pm 31.8 27.5 14.4 34 10.7 ENE 30 43 16 23 - - 0.0
29/03:30pm 32.6 28.4 14.7 34 11.0 ENE 30 41 16 22 - - 0.0
29/03:00pm 35.1 31.0 8.0 19 15.3 E 19 26 10 14 - - 0.0
29/02:30pm 34.5 30.7 9.0 21 14.5 E 19 26 10 14 - - 0.0
29/02:00pm 33.9 30.5 7.8 20 14.6 S 15 28 8 15 - - 0.0
29/01:30pm 34.1 31.7 7.2 19 14.9 E 9 17 5 9 - - 0.0
29/01:00pm 33.6 30.7 8.3 21 14.2 SSE 13 22 7 12 - - 0.0
29/12:30pm 32.4 30.0 8.6 23 13.4 S 11 20 6 11 - - 0.0
29/12:00pm 32.4 30.3 9.9 25 12.9 NNE 11 20 6 11 - - 0.0
29/11:30am 31.7 29.9 9.3 25 12.7 N 9 17 5 9 - - 0.0
29/11:00am 30.7 27.3 7.8 24 12.6 SE 15 22 8 12 - - 0.0
29/10:30am 30.4 27.5 8.2 25 12.3 ESE 13 28 7 15 - - 0.0
29/10:00am 30.0 27.4 7.8 25 12.1 ESE 11 24 6 13 - - 0.0
29/09:30am 28.4 28.6 14.6 43 8.4 NW 7 13 4 7 - - 0.0
29/09:00am 26.3 26.0 13.4 45 7.6 E 7 11 4 6 - - 0.0
29/08:30am 25.4 25.6 14.8 52 6.4 ESE 7 11 4 6 - - 0.0
29/08:00am 23.9 24.2 14.9 57 5.4 ESE 7 11 4 6 - - 0.0
29/07:30am 22.4 22.5 16.4 69 3.7 S 11 15 6 8 - - 0.0
29/07:00am 21.3 21.4 15.4 69 3.5 SSE 9 15 5 8 - - 0.0
29/06:30am 20.7 19.8 13.6 64 4.1 SSE 11 13 6 7 - - 0.0
29/06:00am 19.6 17.3 7.4 45 6.2 SSW 9 15 5 8 - - 0.0
29/05:30am 17.3 14.0 4.3 42 6.2 SW 11 15 6 8 - - 0.0
29/05:00am 15.5 11.7 5.7 52 4.7 WSW 15 19 8 10 - - 0.0
29/04:30am 16.8 13.7 5.4 47 5.5 WSW 11 13 6 7 - - 0.0
29/04:00am 15.0 12.3 7.5 61 3.7 WSW 11 13 6 7 - - 0.0
29/03:30am 13.9 12.2 8.3 69 2.8 W 7 9 4 5 - - 0.0
29/03:00am 16.4 14.5 9.1 62 3.8 SW 9 9 5 5 - - 0.0
29/02:30am 16.5 15.6 10.6 68 3.2 WSW 6 7 3 4 - - 0.0
29/02:00am 18.4 17.2 11.7 65 3.7 W 9 15 5 8 - - 0.0
29/01:30am 18.7 18.3 14.2 75 2.6 WSW 9 13 5 7 - - 0.0
29/01:00am 18.9 18.3 15.6 81 2.0 WSW 13 19 7 10 - - 0.0
29/12:30am 19.4 19.1 16.4 83 1.8 WSW 13 17 7 9 - - 0.0
29/12:00am 17.8 17.8 15.1 84 1.6 WSW 9 13 5 7 - - 0.0
 
Date/Time
EST
Tmp

°C
App
Tmp
°C
Dew
Point
°C
Rel
Hum
%
Delta-T

°C
Wind Press
QNH
hPa
Press
MSL
hPa
Rain
since
9 am
mm
Dir
 
Spd
km/h
Gust
km/h
Spd
kts
Gust
kts
28/11:30pm 18.3 18.1 14.8 80 2.0 WSW 9 11 5 6 - - 0.0
28/11:00pm 18.1 19.5 15.5 85 1.5 W 2 7 1 4 - - 0.0
28/10:30pm 19.2 20.3 15.5 79 2.2 W 4 7 2 4 - - 0.0
28/10:00pm 19.8 20.4 15.2 75 2.7 W 6 7 3 4 - - 0.0
28/09:30pm 22.1 23.5 17.7 76 2.7 S 7 9 4 5 - - 0.0
28/09:00pm 21.8 22.9 16.5 72 3.2 SSW 6 7 3 4 - - 0.0
28/08:30pm 22.3 24.1 15.6 66 4.0 CALM 0 0 0 0 - - 0.0
28/08:00pm 23.7 25.2 17.7 69 3.8 E 6 7 3 4 - - 0.0
28/07:30pm 24.4 25.6 17.4 65 4.4 SSE 7 9 4 5 - - 0.0
28/07:00pm 25.5 26.6 17.9 63 4.8 SSE 9 13 5 7 - - 0.0
28/06:30pm 26.4 27.1 18.0 60 5.3 SE 11 13 6 7 - - 0.0
28/06:00pm 27.9 27.6 18.3 56 6.1 SE 17 22 9 12 - - 0.0

Latest Capital City Observations: Canberra | Sydney | Melbourne | Brisbane | Adelaide | Perth | Hobart | Darwin

Other Formats:

Comma delimited format used in spreadsheet applications
http://www.bom.gov.au/fwo/IDQ60901/IDQ60901.94562.axf

JavaScript Object Notation format (JSON) in row-major order
http://www.bom.gov.au/fwo/IDQ60901/IDQ60901.94562.json